createdAt,value
2022-12-04T00:00:42.291Z,46.50
2022-12-04T00:03:10.056Z,46.28
2022-12-04T00:05:37.796Z,49.97
2022-12-04T00:08:05.620Z,44.17
2022-12-04T00:10:34.833Z,45.30
2022-12-04T00:13:02.532Z,44.72
2022-12-04T00:15:30.194Z,42.67
2022-12-04T00:17:57.883Z,40.60
2022-12-04T00:20:27.468Z,43.60
2022-12-04T00:22:55.146Z,39.45
2022-12-04T00:25:23.291Z,49.55
2022-12-04T00:27:52.336Z,45.60
2022-12-04T00:30:20.002Z,42.95
2022-12-04T00:32:47.702Z,44.45
2022-12-04T00:35:15.535Z,44.25
2022-12-04T00:37:43.267Z,44.35
2022-12-04T00:40:11.784Z,43.15
2022-12-04T00:42:39.504Z,45.40
2022-12-04T00:45:09.603Z,40.25
2022-12-04T00:47:37.310Z,38.08
2022-12-04T00:50:06.322Z,36.55
2022-12-04T00:52:34.007Z,36.97
2022-12-04T00:55:01.689Z,38.97
2022-12-04T00:57:29.377Z,41.08
2022-12-04T00:59:57.443Z,36.17
2022-12-04T01:02:26.715Z,36.58
2022-12-04T01:04:54.382Z,36.20
2022-12-04T01:07:22.072Z,37.70
2022-12-04T01:09:49.771Z,39.55
2022-12-04T01:12:20.756Z,40.10
2022-12-04T01:14:48.903Z,39.65
2022-12-04T01:17:16.941Z,38.67
2022-12-04T01:19:45.940Z,38.10
2022-12-04T01:22:13.630Z,39.88
2022-12-04T01:24:41.421Z,36.97
2022-12-04T01:27:09.349Z,37.13
2022-12-04T01:29:37.075Z,36.08
2022-12-04T01:32:07.721Z,39.58
2022-12-04T01:34:35.409Z,43.20
2022-12-04T01:37:04.544Z,37.65
2022-12-04T01:39:32.220Z,43.28
2022-12-04T01:42:00.186Z,36.88
2022-12-04T01:44:28.155Z,40.25
2022-12-04T01:47:00.173Z,38.40
2022-12-04T01:49:35.100Z,41.10
2022-12-04T01:52:10.176Z,38.65
2022-12-04T01:54:42.199Z,35.28
2022-12-04T01:57:14.743Z,38.65
2022-12-04T01:59:48.591Z,37.63
2022-12-04T02:02:19.694Z,41.47
2022-12-04T02:04:48.006Z,39.05
2022-12-04T02:07:17.601Z,35.78
2022-12-04T02:09:46.108Z,37.95
2022-12-04T02:12:21.528Z,41.13
2022-12-04T02:17:27.341Z,36.78
2022-12-04T02:20:11.731Z,34.53
2022-12-04T02:22:59.623Z,38.47
2022-12-04T02:25:35.962Z,35.80
2022-12-04T02:28:11.131Z,33.42
2022-12-04T02:30:42.328Z,34.40
2022-12-04T02:33:18.843Z,33.33
2022-12-04T02:35:49.055Z,34.38
2022-12-04T02:38:23.357Z,33.75
2022-12-04T02:40:58.224Z,33.08
2022-12-04T02:43:31.140Z,33.40
2022-12-04T02:46:02.383Z,28.70
2022-12-04T02:48:34.337Z,29.58
2022-12-04T02:51:02.989Z,32.25
2022-12-04T02:53:36.485Z,29.60
2022-12-04T02:56:09.972Z,30.38
2022-12-04T02:58:46.587Z,30.42
2022-12-04T03:01:21.264Z,29.73
2022-12-04T03:03:52.516Z,34.30
2022-12-04T03:06:22.556Z,38.20
2022-12-04T03:08:56.073Z,35.55
2022-12-04T03:11:27.577Z,39.88
2022-12-04T03:14:00.986Z,40.88
2022-12-04T03:16:33.267Z,34.90
2022-12-04T03:19:11.259Z,37.03
2022-12-04T03:21:43.548Z,39.63
2022-12-04T03:24:16.733Z,38.15
2022-12-04T03:26:48.556Z,42.15
2022-12-04T03:29:22.345Z,37.90
2022-12-04T03:31:56.645Z,38.88
2022-12-04T03:34:29.057Z,43.03
2022-12-04T03:37:00.399Z,43.38
2022-12-04T03:39:35.874Z,35.63
2022-12-04T03:44:49.102Z,35.78
2022-12-04T03:47:21.125Z,40.15
2022-12-04T03:49:53.518Z,37.75
2022-12-04T03:52:25.814Z,37.90
2022-12-04T03:54:57.862Z,36.95
2022-12-04T03:57:31.409Z,38.78
2022-12-04T04:00:07.042Z,38.58
2022-12-04T04:02:38.788Z,36.65
2022-12-04T04:05:10.937Z,36.95
2022-12-04T04:07:42.927Z,33.72
2022-12-04T04:10:15.464Z,36.75
2022-12-04T04:13:09.243Z,33.60
2022-12-04T04:16:01.246Z,33.60
2022-12-04T04:18:48.858Z,36.22
2022-12-04T04:21:39.765Z,39.17
2022-12-04T04:24:17.537Z,42.08
2022-12-04T04:26:48.376Z,33.90
2022-12-04T04:29:16.478Z,32.05
2022-12-04T04:31:53.342Z,40.95
2022-12-04T04:34:28.086Z,38.45
2022-12-04T04:37:01.010Z,33.75
2022-12-04T04:39:35.427Z,33.50
2022-12-04T04:42:10.914Z,37.83
2022-12-04T04:47:17.702Z,34.03
2022-12-04T04:49:48.528Z,38.95
2022-12-04T04:52:18.568Z,33.38
2022-12-04T04:54:48.143Z,37.83
2022-12-04T04:57:26.930Z,37.72
2022-12-04T04:59:54.857Z,35.28
2022-12-04T05:02:26.687Z,42.08
2022-12-04T05:04:55.328Z,38.10
2022-12-04T05:07:23.014Z,38.50
2022-12-04T05:09:50.715Z,35.58
2022-12-04T05:12:18.391Z,33.65
2022-12-04T05:14:50.394Z,34.75
2022-12-04T05:17:18.513Z,33.05
2022-12-04T05:19:57.677Z,35.55
2022-12-04T05:22:31.497Z,32.80
2022-12-04T05:24:59.825Z,38.33
2022-12-04T05:27:29.069Z,35.60
2022-12-04T05:29:58.440Z,39.95
2022-12-04T05:32:27.742Z,37.05
2022-12-04T05:34:57.582Z,34.30
2022-12-04T05:37:26.417Z,31.92
2022-12-04T05:39:54.809Z,35.97
2022-12-04T05:42:22.725Z,37.03
2022-12-04T05:44:51.008Z,33.00
2022-12-04T05:47:18.862Z,33.80
2022-12-04T05:49:46.520Z,32.00
2022-12-04T05:52:15.704Z,35.65
2022-12-04T05:54:43.395Z,34.88
2022-12-04T05:57:14.326Z,36.38
2022-12-04T05:59:41.988Z,33.83
2022-12-04T06:02:09.714Z,33.47
2022-12-04T06:04:38.454Z,36.83
2022-12-04T06:07:06.834Z,37.55
2022-12-04T06:09:35.921Z,37.30
2022-12-04T06:12:05.153Z,34.50
2022-12-04T06:14:39.311Z,34.53
2022-12-04T06:17:07.953Z,33.05
2022-12-04T06:19:35.811Z,35.67
2022-12-04T06:22:03.500Z,31.77
2022-12-04T06:24:31.388Z,37.35
2022-12-04T06:29:48.900Z,35.33
2022-12-04T06:32:21.528Z,33.67
2022-12-04T06:34:52.569Z,31.05
2022-12-04T06:37:24.864Z,33.55
2022-12-04T06:39:52.746Z,36.13
2022-12-04T06:42:21.960Z,34.47
2022-12-04T06:44:50.555Z,35.78
2022-12-04T06:47:18.787Z,39.95
2022-12-04T06:49:52.633Z,45.80
2022-12-04T06:52:20.466Z,38.15
2022-12-04T06:54:48.145Z,45.55
2022-12-04T06:57:15.881Z,42.78
2022-12-04T06:59:45.022Z,43.28
2022-12-04T07:02:13.317Z,38.88
2022-12-04T07:04:41.732Z,40.65
2022-12-04T07:07:09.844Z,37.47
2022-12-04T07:09:37.889Z,37.58
2022-12-04T07:12:06.262Z,38.25
2022-12-04T07:14:34.009Z,33.58
2022-12-04T07:17:05.689Z,41.45
2022-12-04T07:19:33.482Z,37.60
2022-12-04T07:22:01.219Z,40.90
2022-12-04T07:24:28.958Z,45.08
2022-12-04T07:26:56.623Z,41.38
2022-12-04T07:29:24.349Z,41.03
2022-12-04T07:31:52.069Z,39.97
2022-12-04T07:34:21.206Z,39.47
2022-12-04T07:36:48.988Z,38.70
2022-12-04T07:39:16.788Z,36.35
2022-12-04T07:41:44.470Z,35.65
2022-12-04T07:44:12.285Z,35.83
2022-12-04T07:46:42.645Z,34.67
2022-12-04T07:49:12.799Z,34.70
2022-12-04T07:51:41.935Z,36.00
2022-12-04T07:54:09.889Z,33.20
2022-12-04T07:56:37.631Z,36.03
2022-12-04T07:59:05.321Z,36.65
2022-12-04T08:01:33.634Z,32.88
2022-12-04T08:04:04.631Z,29.42
2022-12-04T08:06:35.323Z,32.78
2022-12-04T08:09:09.475Z,35.15
2022-12-04T08:11:37.666Z,33.85
2022-12-04T08:14:08.760Z,37.15
2022-12-04T08:16:36.567Z,36.03
2022-12-04T08:19:04.583Z,35.28
2022-12-04T08:21:33.988Z,33.97
2022-12-04T08:24:02.237Z,35.25
2022-12-04T08:26:33.641Z,32.35
2022-12-04T08:29:02.712Z,36.28
2022-12-04T08:31:32.876Z,34.28
2022-12-04T08:34:02.694Z,39.63
2022-12-04T08:36:30.460Z,36.08
2022-12-04T08:38:59.297Z,34.17
2022-12-04T08:41:28.252Z,38.45
2022-12-04T08:43:57.948Z,37.50
2022-12-04T08:46:28.106Z,37.63
2022-12-04T08:48:56.591Z,36.53
2022-12-04T08:51:26.319Z,42.22
2022-12-04T08:53:55.922Z,36.90
2022-12-04T08:56:24.596Z,38.33
2022-12-04T08:58:58.339Z,39.05
2022-12-04T09:01:30.558Z,40.13
2022-12-04T09:03:59.250Z,42.30
2022-12-04T09:06:27.211Z,36.47
2022-12-04T09:08:55.727Z,36.97
2022-12-04T09:11:25.660Z,38.15
2022-12-04T09:13:54.049Z,41.08
2022-12-04T09:16:26.053Z,38.13
2022-12-04T09:18:54.861Z,37.05
2022-12-04T09:21:23.967Z,35.55
2022-12-04T09:23:52.425Z,35.63
2022-12-04T09:26:24.101Z,37.80
2022-12-04T09:28:52.603Z,36.00
2022-12-04T09:31:21.609Z,35.42
2022-12-04T09:33:51.511Z,55.42
2022-12-04T09:36:19.666Z,33.97
2022-12-04T09:38:49.181Z,40.53
2022-12-04T09:41:29.435Z,36.95
2022-12-04T09:44:02.343Z,37.92
2022-12-04T09:46:35.216Z,40.42
2022-12-04T09:49:08.165Z,34.15
2022-12-04T09:51:38.529Z,33.58
2022-12-04T09:54:14.128Z,37.55
2022-12-04T09:56:44.605Z,35.08
2022-12-04T09:59:16.032Z,27.95
2022-12-04T10:01:47.515Z,30.92
2022-12-04T10:04:17.259Z,30.95
2022-12-04T10:06:50.854Z,36.58
2022-12-04T10:09:25.764Z,34.05
2022-12-04T10:12:00.932Z,32.05
2022-12-04T10:14:47.429Z,32.92
2022-12-04T10:17:32.689Z,27.90
2022-12-04T10:20:12.112Z,29.17
2022-12-04T10:22:47.670Z,32.05
2022-12-04T10:27:52.398Z,26.92
2022-12-04T10:30:22.486Z,30.52
2022-12-04T10:32:56.400Z,28.73
2022-12-04T10:35:29.405Z,28.95
2022-12-04T10:38:00.611Z,31.55
2022-12-04T10:40:33.644Z,29.65
2022-12-04T10:43:07.579Z,28.52
2022-12-04T10:45:35.458Z,29.55
2022-12-04T10:48:03.234Z,30.75
2022-12-04T10:50:33.104Z,28.90
2022-12-04T10:53:00.872Z,27.13
2022-12-04T10:55:30.552Z,27.17
2022-12-04T10:57:58.408Z,27.38
2022-12-04T11:00:29.775Z,25.15
2022-12-04T11:03:00.217Z,27.10
2022-12-04T11:05:32.632Z,24.65
2022-12-04T11:08:05.846Z,23.88
2022-12-04T11:10:36.868Z,27.20
2022-12-04T11:13:07.441Z,28.83
2022-12-04T11:15:37.434Z,27.25
2022-12-04T11:18:09.636Z,26.23
2022-12-04T11:20:37.502Z,26.88
2022-12-04T11:23:06.749Z,33.72
2022-12-04T11:25:39.468Z,33.35
2022-12-04T11:28:22.537Z,29.25
2022-12-04T11:31:00.771Z,25.95
2022-12-04T11:33:33.875Z,30.08
2022-12-04T11:36:04.496Z,32.53
2022-12-04T11:38:36.158Z,32.20
2022-12-04T11:41:06.598Z,36.22
2022-12-04T11:43:37.843Z,34.95
2022-12-04T11:46:07.656Z,34.35
2022-12-04T11:48:44.053Z,32.83
2022-12-04T11:51:19.927Z,34.50
2022-12-04T11:53:55.687Z,34.33
2022-12-04T11:56:30.230Z,38.15
2022-12-04T11:59:22.297Z,38.33
2022-12-04T12:01:58.758Z,40.70
2022-12-04T12:04:56.861Z,34.80
2022-12-04T12:07:36.378Z,39.70
2022-12-04T12:10:13.028Z,40.65
2022-12-04T12:12:54.735Z,38.13
2022-12-04T12:15:30.976Z,38.08
2022-12-04T12:18:16.451Z,38.42
2022-12-04T12:20:58.053Z,40.10
2022-12-04T12:23:42.883Z,41.55
2022-12-04T12:26:14.466Z,37.95
2022-12-04T12:29:01.814Z,34.47
2022-12-04T12:31:44.105Z,42.45
2022-12-04T12:34:16.174Z,37.20
2022-12-04T12:36:48.330Z,35.33
2022-12-04T12:39:24.223Z,39.90
2022-12-04T12:41:56.547Z,37.08
2022-12-04T12:44:31.919Z,40.92
2022-12-04T12:47:03.279Z,39.05
2022-12-04T12:49:37.424Z,36.47
2022-12-04T12:52:12.741Z,38.55
2022-12-04T12:54:45.027Z,40.70
2022-12-04T12:57:29.324Z,38.13
2022-12-04T13:00:01.139Z,39.95
2022-12-04T13:02:30.816Z,39.00
2022-12-04T13:05:05.386Z,40.03
2022-12-04T13:07:44.942Z,41.87
2022-12-04T13:10:18.180Z,46.15
2022-12-04T13:12:53.381Z,37.45
2022-12-04T13:15:25.084Z,41.00
2022-12-04T13:17:57.497Z,43.50
2022-12-04T13:20:29.636Z,58.22
2022-12-04T13:23:15.601Z,44.97
2022-12-04T13:28:29.574Z,41.00
2022-12-04T13:31:07.357Z,42.42
2022-12-04T13:33:53.179Z,43.45
2022-12-04T13:37:01.277Z,44.08
2022-12-04T13:39:52.255Z,44.95
2022-12-04T13:42:25.185Z,43.63
2022-12-04T13:45:00.220Z,43.28
2022-12-04T13:47:33.286Z,41.83
2022-12-04T13:50:10.692Z,45.03
2022-12-04T13:52:41.104Z,47.60
2022-12-04T13:55:24.806Z,43.13
2022-12-04T13:57:57.020Z,49.63
2022-12-04T14:00:30.701Z,43.17
2022-12-04T14:03:01.182Z,45.75
2022-12-04T14:05:32.235Z,45.50
2022-12-04T14:08:08.036Z,45.78
2022-12-04T14:10:39.887Z,48.75
2022-12-04T14:13:18.214Z,48.33
2022-12-04T14:15:47.574Z,44.42
2022-12-04T14:18:25.794Z,47.08
2022-12-04T14:21:00.980Z,44.47
2022-12-04T14:23:36.154Z,49.42
2022-12-04T14:26:05.298Z,46.28
2022-12-04T14:28:42.655Z,49.40
2022-12-04T14:31:31.468Z,48.30
2022-12-04T14:34:02.527Z,48.30
2022-12-04T14:36:34.490Z,51.33
2022-12-04T14:39:13.399Z,48.47
2022-12-04T14:41:42.195Z,48.33
2022-12-04T14:44:24.019Z,49.90
2022-12-04T14:46:56.295Z,49.78
2022-12-04T14:49:39.605Z,48.72
2022-12-04T14:52:14.899Z,47.75
2022-12-04T14:54:52.417Z,51.08
2022-12-04T14:57:35.132Z,52.25
2022-12-04T15:00:05.556Z,51.97
2022-12-04T15:02:41.292Z,52.58
2022-12-04T15:05:11.020Z,58.10
2022-12-04T15:07:48.387Z,58.05
2022-12-04T15:10:38.517Z,55.15
2022-12-04T15:13:06.235Z,62.05
2022-12-04T15:15:33.987Z,63.97
2022-12-04T15:18:11.361Z,70.90
2022-12-04T15:20:46.219Z,78.80
2022-12-04T15:23:16.735Z,73.03
2022-12-04T15:25:46.780Z,78.43
2022-12-04T15:28:19.471Z,74.40
2022-12-04T15:30:49.783Z,77.18
2022-12-04T15:33:23.144Z,71.53
2022-12-04T15:35:54.889Z,73.40
2022-12-04T15:38:22.879Z,73.18
2022-12-04T15:40:53.441Z,80.68
2022-12-04T15:43:28.591Z,71.13
2022-12-04T15:45:57.265Z,72.93
2022-12-04T15:48:28.425Z,68.97
2022-12-04T15:50:58.243Z,83.18
2022-12-04T15:53:29.097Z,66.25
2022-12-04T15:56:00.464Z,73.72
2022-12-04T15:58:30.646Z,79.80
2022-12-04T16:01:01.112Z,63.72
2022-12-04T16:03:32.184Z,60.25
2022-12-04T16:06:04.944Z,61.20
2022-12-04T16:08:34.829Z,64.65
2022-12-04T16:11:05.761Z,54.83
2022-12-04T16:13:35.619Z,56.05
2022-12-04T16:16:07.329Z,56.65
2022-12-04T16:18:36.635Z,52.30
2022-12-04T16:21:04.508Z,66.03
2022-12-04T16:23:33.267Z,58.05
2022-12-04T16:26:01.181Z,60.72
2022-12-04T16:28:29.154Z,59.45
2022-12-04T16:30:57.152Z,61.90
2022-12-04T16:33:25.403Z,52.40
2022-12-04T16:35:54.871Z,60.83
2022-12-04T16:38:23.712Z,51.60
2022-12-04T16:40:51.692Z,58.10
2022-12-04T16:43:19.588Z,53.33
2022-12-04T16:45:49.998Z,53.28
2022-12-04T16:48:18.112Z,55.90
2022-12-04T16:50:46.917Z,45.40
2022-12-04T16:53:18.380Z,42.33
2022-12-04T16:55:47.846Z,45.55
2022-12-04T16:58:16.041Z,44.92
2022-12-04T17:00:46.015Z,41.85
2022-12-04T17:03:21.056Z,42.33
2022-12-04T17:05:48.819Z,43.63
2022-12-04T17:08:17.931Z,45.15
2022-12-04T17:10:45.763Z,47.67
2022-12-04T17:13:13.519Z,44.47
2022-12-04T17:15:41.215Z,42.85
2022-12-04T17:18:12.931Z,46.50
2022-12-04T17:20:43.783Z,45.53
2022-12-04T17:23:12.953Z,45.88
2022-12-04T17:25:42.072Z,45.85
2022-12-04T17:28:09.802Z,46.15
2022-12-04T17:30:37.510Z,49.05
2022-12-04T17:33:05.575Z,102.97
2022-12-04T17:35:37.898Z,43.22
2022-12-04T17:38:06.464Z,50.08
2022-12-04T17:40:34.350Z,47.65
2022-12-04T17:43:03.408Z,49.20
2022-12-04T17:45:31.290Z,42.88
2022-12-04T17:48:00.959Z,34.33
2022-12-04T17:50:28.700Z,36.25
2022-12-04T17:52:56.370Z,40.58
2022-12-04T17:55:24.063Z,39.88
2022-12-04T17:57:51.729Z,35.03
2022-12-04T18:00:21.052Z,38.55
2022-12-04T18:02:53.009Z,38.65
2022-12-04T18:05:21.198Z,36.42
2022-12-04T18:07:48.913Z,32.15
2022-12-04T18:10:19.264Z,36.85
2022-12-04T18:12:47.347Z,38.90
2022-12-04T18:15:15.063Z,36.05
2022-12-04T18:17:47.062Z,37.80
2022-12-04T18:20:14.775Z,38.75
2022-12-04T18:22:42.472Z,35.08
2022-12-04T18:25:10.991Z,49.80
2022-12-04T18:27:41.818Z,38.42
2022-12-04T18:30:11.962Z,39.63
2022-12-04T18:32:39.682Z,47.38
2022-12-04T18:35:09.629Z,43.42
2022-12-04T18:37:37.363Z,48.13
2022-12-04T18:40:07.216Z,45.55
2022-12-04T18:42:38.088Z,43.72
2022-12-04T18:45:06.997Z,55.80
2022-12-04T18:47:43.610Z,49.22
2022-12-04T18:50:13.512Z,48.65
2022-12-04T18:52:41.559Z,40.03
2022-12-04T18:57:57.192Z,41.95
2022-12-04T19:00:24.892Z,44.85
2022-12-04T19:02:52.668Z,45.45
2022-12-04T19:05:21.842Z,42.88
2022-12-04T19:07:50.358Z,39.85
2022-12-04T19:10:18.150Z,37.55
2022-12-04T19:12:45.814Z,34.08
2022-12-04T19:15:13.613Z,35.80
2022-12-04T19:17:44.424Z,34.42
2022-12-04T19:20:12.749Z,34.28
2022-12-04T19:22:41.829Z,33.85
2022-12-04T19:25:10.220Z,32.63
2022-12-04T19:27:37.964Z,33.25
2022-12-04T19:30:07.081Z,36.75
2022-12-04T19:32:34.920Z,33.97
2022-12-04T19:35:02.709Z,33.63
2022-12-04T19:37:30.435Z,32.05
2022-12-04T19:39:59.936Z,33.67
2022-12-04T19:42:33.050Z,34.13
2022-12-04T19:45:00.811Z,35.78
2022-12-04T19:47:28.551Z,34.53
2022-12-04T19:49:59.171Z,29.88
2022-12-04T19:52:27.136Z,31.95
2022-12-04T19:54:56.078Z,35.63
2022-12-04T19:57:25.349Z,35.83
2022-12-04T19:59:53.443Z,36.70
2022-12-04T20:02:21.196Z,35.83
2022-12-04T20:04:49.003Z,35.90
2022-12-04T20:07:16.952Z,33.88
2022-12-04T20:09:51.934Z,35.90
2022-12-04T20:12:20.212Z,33.10
2022-12-04T20:14:49.735Z,30.52
2022-12-04T20:17:17.876Z,34.15
2022-12-04T20:19:46.309Z,31.15
2022-12-04T20:22:14.428Z,33.35
2022-12-04T20:24:43.077Z,31.20
2022-12-04T20:27:10.996Z,29.60
2022-12-04T20:29:39.010Z,30.27
2022-12-04T20:32:08.472Z,32.45
2022-12-04T20:34:43.065Z,31.65
2022-12-04T20:37:11.897Z,36.40
2022-12-04T20:39:40.296Z,33.15
2022-12-04T20:42:08.142Z,32.28
2022-12-04T20:44:36.244Z,32.38
2022-12-04T20:47:04.026Z,29.67
2022-12-04T20:49:35.389Z,33.70
2022-12-04T20:52:03.856Z,32.50
2022-12-04T20:54:35.367Z,30.33
2022-12-04T20:57:08.075Z,31.15
2022-12-04T20:59:36.778Z,31.67
2022-12-04T21:02:07.521Z,32.78
2022-12-04T21:04:39.682Z,33.03
2022-12-04T21:07:07.988Z,26.45
2022-12-04T21:09:36.104Z,29.13
2022-12-04T21:12:28.547Z,31.65
2022-12-04T21:15:14.504Z,27.48
2022-12-04T21:17:43.411Z,28.85
2022-12-04T21:20:15.021Z,26.90
2022-12-04T21:22:43.486Z,29.42
2022-12-04T21:25:12.454Z,72.63
2022-12-04T21:27:40.648Z,52.08
2022-12-04T21:30:09.997Z,27.83
2022-12-04T21:32:37.950Z,29.45
2022-12-04T21:35:06.351Z,31.58
2022-12-04T21:37:36.228Z,27.38
2022-12-04T21:40:04.683Z,30.40
2022-12-04T21:42:31.439Z,27.70
2022-12-04T21:44:59.614Z,26.15
2022-12-04T21:47:27.867Z,28.77
2022-12-04T21:49:56.213Z,27.10
2022-12-04T21:52:24.373Z,28.50
2022-12-04T21:54:58.025Z,29.30
2022-12-04T21:57:26.128Z,26.35
2022-12-04T21:59:54.188Z,28.63
2022-12-04T22:02:23.995Z,27.05
2022-12-04T22:04:51.776Z,32.38
2022-12-04T22:07:19.536Z,32.05
2022-12-04T22:09:47.265Z,29.27
2022-12-04T22:15:04.357Z,31.17
2022-12-04T22:17:32.141Z,32.47
2022-12-04T22:20:00.055Z,29.38
2022-12-04T22:22:27.839Z,27.98
2022-12-04T22:24:55.539Z,26.63
2022-12-04T22:27:24.616Z,31.40
2022-12-04T22:29:52.424Z,30.15
2022-12-04T22:32:20.743Z,27.80
2022-12-04T22:34:49.421Z,24.92
2022-12-04T22:37:17.699Z,29.02
2022-12-04T22:39:45.449Z,27.65
2022-12-04T22:42:13.379Z,26.63
2022-12-04T22:44:42.662Z,30.23
2022-12-04T22:47:10.503Z,30.95
2022-12-04T22:49:38.312Z,32.78
2022-12-04T22:52:06.368Z,31.52
2022-12-04T22:54:34.139Z,29.15
2022-12-04T23:03:28.665Z,30.65
2022-12-04T23:05:56.576Z,34.53
2022-12-04T23:08:24.301Z,29.45
2022-12-04T23:10:52.055Z,32.50
2022-12-04T23:13:21.653Z,30.38
2022-12-04T23:15:50.495Z,32.47
2022-12-04T23:18:18.241Z,30.25
2022-12-04T23:20:47.338Z,30.77
2022-12-04T23:23:15.080Z,29.75
2022-12-04T23:25:42.740Z,27.92
2022-12-04T23:28:10.502Z,31.50
2022-12-04T23:30:38.182Z,30.48
2022-12-04T23:33:05.888Z,30.98
2022-12-04T23:35:35.494Z,26.67
2022-12-04T23:38:04.617Z,27.08
2022-12-04T23:40:32.278Z,28.08
2022-12-04T23:43:00.065Z,27.52
2022-12-04T23:45:27.752Z,27.63
2022-12-04T23:47:55.863Z,28.42
2022-12-04T23:50:25.207Z,24.42
2022-12-04T23:52:52.914Z,26.27
2022-12-04T23:55:22.048Z,28.15
2022-12-04T23:57:49.809Z,28.33
